Mass Start - EYOC 2012 Lac de Vassivière (87) - D

Date : 01/07/2012

Place Nom Licence Catégorie Club Temps CN à J-60 Points Différence Nouveau CN
1 PERRIN Mathieu 8976 H14 4201RA 0:25:26 5210 4659 -551 5240
2 PANNIER Quentin 16688 H14 7807IF 0:26:31 4108 4469 +361 4152
3 MOISSET Jacques 2328 H60 7403RA 0:26:32 5031 4466 -565 5671
4 CAVARROC Hugo 16331 H14 1104LR 0:26:33 3923 4463 +540 4099
5 ROCHE Maxime 15418 H14 6911RA 0:26:37 3009 4452 +1443 3425
6 TANGUY Leo 13329 H14 3502BR 0:26:39 3948 4446 +498 4020
7 MASLIAH Raphaël 26389 H14 2610RA 0:26:40 2394 4443 +2049 4478
8 GUILLEMET Océane 22819 D16 3318AQ 0:26:41 4389 4441 +52 4732
9 VIGIER Léo 22094 H14 4203RA 0:26:42 3390 4438 +1048 3665
10 PICHARD Adrien 16456 H14 6911RA 0:27:20 3584 4335 +751 3658
11 GIRARD Lucille 19689 D16 3705CE 0:27:30 4835 4309 -526 4996
12 DELENNE Camilla 13800 D16 1307PR 0:27:34 3796 4298 +502 3971
13 POURRE Jeremi 14273 H14 2508FC 0:27:41 3797 4280 +483 3851
14 DOURDOU-VARRON Malo 14751 H14 9404IF 0:28:53 3823 4102 +279 3975
15 BATTISTA Clement 17545 H14 3308AQ 0:28:56 4742 4095 -647 4833
16 DAYON Pierre 15718 H60 4012AQ 0:28:58 4932 4091 -841 5096
17 VERGNAUD Alexandre 21052 H14 8702LI 0:29:03 3405 4079 +674 3570
18 MASCARELL Henri 8928 H60 6911RA 0:29:08 5583 4067 -1516 5519
19 DECHAVANNE J-Francois 3461 H60 6911RA 0:29:10 6000 4063 -1937 5945
20 TRESSOL Marine 20532 D14 4704AQ 0:29:22 3090 4035 +945 3147
21 BASSET Fiona 23384 D16 6911RA 0:29:32 4029 4012 -17 4127
22 PICAZO Marie 16555 D16 8405PR 0:30:06 4009 3937 -72 4031
23 MAGDINIER Gilles 1635 H60 1307PR 0:30:51 4904 3841 -1063 4883
24 PETER-JAN Lucile 19276 D16 3705CE 0:31:00 4520 3822 -698 4578
25 RIVOLLIER Isaline 22451 D16 4201RA 0:31:05 4252 3812 -440 4181
26 BASSET Juliette 12398 D14 6911RA 0:31:14 3548 3794 +246 3610
27 MOUSSU Sarah 22301 D16 3318AQ 0:31:22 3259 3778 +519 3858
28 LUTHRINGER Coline 10091 D16 8809LO 0:31:26 4161 3770 -391 4352
29 CLEMENT-AGONI Benjamin 11391 H21 2108BO 0:31:51 5287 3720 -1567 5344
30 DUQUENNE Audrey 23885 D16 5907NO 0:32:00 3642 3703 +61 3647
31 FERRAND Antonin 23465 H14 4203RA 0:32:30 3684 3646 -38 3718
32 CLOUARD Augustin 8552 H14 7807IF 0:33:20 3570 3555 -15 3574
33 LEDUC Benjamin 21123 H14 1905LI 0:34:03 4213 3480 -733 4183
34 MENUT J-Claude 1656 H60 8105MP 0:34:19 5620 3453 -2167 5512
35 ROBIN Patrick 1707 H60 1705PC 0:34:24 5134 3445 -1689 4861
36 VUILLET Christian 2712 H60 2105BO 0:34:30 4523 3435 -1088 4579
37 BERGER-CAPBERN Valérie 6068 D50 3105MP 0:34:32 4922 3431 -1491 5037
38 DUPOIRIEUX Sophie 10496 D50 8807LO 0:34:53 4074 3397 -677 4104
39 GHIBAUDO Simon 20917 H14 4203RA 0:35:00 3382 3385 +3 3291
40 EVEN Gabriel 2789 H70 2206BR 0:35:05 5462 3377 -2085 5327
41 BONNET Christine 2400 D55 5402LO 0:35:07 4851 3374 -1477 4945
42 ROLLET Daniel 2411 H65 5415LO 0:35:09 3477 3371 -106 4079
43 PETIT Guyonne 4372 D55 7808IF 0:35:38 4603 3325 -1278 4584
44 CHARDOT Marion 22315 D16 7807IF 0:37:52 3893 3129 -764 4032
45 BONORA Marine 11542 D16 6906RA 0:37:54 3480 3126 -354 3579
46 CALANDOT J-Pierre 2926 H60 1403NM 0:38:09 5124 3106 -2018 4982
47 QUEYROI Henri 655 H65 3308AQ 0:38:14 4346 3099 -1247 4506
48 ROUX Marie Françoise 25236 D50 4201RA 0:38:19 2886 3092 +206 3832
49 LECUYER Manon 22549 D16 5907NO 0:38:24 2753 3086 +333 2925
50 GERBEAUX Jean-paul 23596 H60 6205NO 0:38:32 3623 3075 -548 3603
51 FIGUIERE Lucile 10087 D16 7109BO 0:39:13 2565 3021 +456 2775
52 COMBET Annie 813 D50 4203RA 0:39:31 4321 2999 -1322 4456
53 ROBERT Francoise 6491 D60 6913RA 0:39:46 4061 2980 -1081 4088
54 CLAUZEAU Cléa 21958 D16 1705PC 0:39:56 3322 2967 -355 3343
55 GERBEAUX Marie-jeanne 22417 D55 6205NO 0:39:57 3183 2966 -217 3179
56 SCHMITT-POUPARD Florence 12056 D55 6913RA 0:40:13 3872 2946 -926 3794
57 CHAMPIGNY Hélène 24631 D12 8318AZ 0:40:29 1872 2927 +1055 2035
58 TERRILLON Marie-Therese 15717 D50 4012AQ 0:40:38 3974 2916 -1058 4084
59 ARMBRUSTER Marie 2952 D50 2508FC 0:40:40 3959 2914 -1045 4003
60 LAVIELLE Alain 965 H65 4012AQ 0:40:48 4751 2904 -1847 4554
61 HAMON Patrick 2146 H60 9307IF 0:41:48 4624 2835 -1789 4783
62 CROCHET Gerard 2817 H70 1705PC 0:43:13 4173 2742 -1431 4186
63 GENNARO Leslie 20863 D16 3811RA 0:43:24 2732 2730 -2 3109
64 DOMENICI J-Claude 1052 H70 1705PC 0:43:32 3776 2722 -1054 3808
65 CAZEMAYOR Tess 22291 D16 3318AQ 0:43:56 2241 2697 +456 2816
66 PITAVAL Sylvie 12060 D50 4201RA 0:44:01 3725 2692 -1033 3811
67 LE ROUX Anne-Francoise 7409 D50 3318AQ 0:44:21 3938 2672 -1266 3969
68 CHALOPIN Catherine 3674 D60 2105BO 0:44:40 3738 2653 -1085 3732
69 DEVILLE Nelly 2401 D60 5402LO 0:44:57 4647 2636 -2011 4587
70 MOISSET Nicole 2329 D55 7403RA 0:46:24 2211 2554 +343 3362
71 LAURENT Manon 25577 D16 5907NO 0:46:33 1953 2545 +592 2472
72 BERCHE Léa 24420 D16 5907NO 0:46:47 3033 2533 -500 3041
73 POIROT Lilou 23658 D14 8809LO 0:47:07 2532 2515 -17 2547
74 DODIN Yves 4391 H60 8809LO 0:48:33 3625 2441 -1184 3594
75 DUDOIGNON Chloé 18089 D14 2605RA 0:48:40 3336 2435 -901 3416
76 BAUDRY J-Claude 1693 H65 1705PC 0:48:59 3721 2419 -1302 3575
77 LEGRAND Mathis 24893 H14 7707IF 0:50:52 3262 2329 -933 3332
78 NATALI Pierre 1107 H60 8105MP 0:53:04 3985 2233 -1752 3926
79 DEBARBIEUX Julie 24574 D16 2108BO 0:53:32 2640 2213 -427 3132
80 LEVESY Salomé 23127 D14 3810RA 0:54:50 2560 2161 -399 2567
81 RAULT Monique 17265 D55 1103LR 0:55:33 2871 2133 -738 2913
82 ELIAS Jean-claude 24745 H70 1307PR 1:00:55 2923 1945 -978 3369
83 BERGER Dominique 23890 H65 1705PC 1:02:01 2870 1911 -959 2486
84 GUIGNARD Marie 11369 D50 7203PL 1:02:13 3130 1905 -1225 3100
85 CAZALA Dominique 14876 D55 3308AQ 1:02:55 2889 1883 -1006 2889
86 VERDIN Christine 15274 D50 7109BO 1:03:28 2617 1867 -750 2610
87 KIEFFER J-Paul 2679 H60 2101BO 1:03:45 3782 1859 -1923 3753
88 GROSJEAN Pierre 12354 H70 6913RA 1:04:05 3064 1849 -1215 2947
89 DRAULT J-Raymond 4234 H70 8702LI 1:08:34 2735 1728 -1007 2784
90 DODIN Genevieve 4392 D60 8809LO 1:21:21 2445 1457 -988 2406
91 MASSON Patricia 2439 D55 4902PL 1:21:21 1950 1457 -493 1932
92 PROST Daniel 2181 H70 9307IF 1:21:37 2807 1452 -1355 2847
ELIAS Guilhem 17763 H12 1307PR pm 3762 0 3771
PICHARD Lucien 17710 H14 6911RA pm 3289 0 3235
MARTINEZ Catherine 7833 D50 4012AQ pm 3555 0 3705
DELENNE Joanna 17030 D14 1307PR pm 2624 0 2662
GATY Daniele 841 D55 4203RA pm 4109 0 4085
ANGLADE Lucile 21188 D16 5604BR pm 3592 0 3680
QUEYROI Yvette 14021 D50 3308AQ pm 1979 0 1962
PROST Gisele 2182 D60 9307IF pm 2753 0 2638